Pottersville, Missouri
Current Conditions -  °F | °C
As of 6:53 PM on Monday 22 Dec 2014 (Local Time) from KUNO Reporting Station
Overcast Overcast  
Wind Chill: 50°   Ceiling: 500
Heat Index: 50°   Visibility: 10mi
Dew Point: 47°   Wind: 9mph
Humidity: 89%   Direction: 210°SSW
Pressure: 29.56"   Gusts: NA
Location:  36.7°N, 92.03°W
Report Text: KUNO 230053Z AUTO 21008KT 10SM OVC005 10/08 A2956 RMK AO2 RAE15 SLP009 P0000 T01000083
Loading
Personal Weather Stations






























Interactive Weather Map New forecast layout! Learn more

10-Day Weather Forecast

Advertisements
Track Severe Weather on mobile